createdAt,value
2022-12-15T00:02:17.214Z,95.81
2022-12-15T00:07:42.032Z,95.78
2022-12-15T00:13:06.786Z,95.74
2022-12-15T00:18:31.355Z,95.78
2022-12-15T00:23:56.188Z,95.78
2022-12-15T00:29:20.587Z,95.81
2022-12-15T00:34:45.365Z,95.85
2022-12-15T00:39:59.296Z,95.84
2022-12-15T00:45:05.857Z,95.60
2022-12-15T00:50:30.872Z,95.59
2022-12-15T00:55:55.740Z,95.52
2022-12-15T01:01:28.524Z,95.56
2022-12-15T01:06:53.075Z,95.60
2022-12-15T01:12:17.540Z,95.54
2022-12-15T01:17:42.739Z,95.49
2022-12-15T01:22:50.272Z,95.56
2022-12-15T01:27:56.149Z,95.33
2022-12-15T01:33:01.825Z,95.51
2022-12-15T01:38:08.174Z,95.58
2022-12-15T01:43:17.853Z,95.69
2022-12-15T01:48:31.576Z,95.74
2022-12-15T01:53:44.136Z,95.80
2022-12-15T01:58:54.031Z,95.58
2022-12-15T02:04:00.734Z,95.45
2022-12-15T02:09:07.827Z,95.27
2022-12-15T02:14:20.004Z,95.18
2022-12-15T02:19:59.219Z,95.23
2022-12-15T02:25:19.137Z,95.09
2022-12-15T02:30:34.547Z,95.03
2022-12-15T02:35:50.154Z,95.04
2022-12-15T02:41:02.086Z,94.95
2022-12-15T02:46:20.291Z,94.87
2022-12-15T02:51:40.207Z,94.94
2022-12-15T02:56:58.282Z,95.07
2022-12-15T03:02:08.971Z,95.09
2022-12-15T03:07:15.510Z,95.27
2022-12-15T03:12:21.173Z,95.46
2022-12-15T03:17:26.865Z,95.48
2022-12-15T03:22:32.803Z,95.10
2022-12-15T03:27:38.613Z,95.10
2022-12-15T03:32:44.336Z,95.34
2022-12-15T03:37:50.210Z,95.30
2022-12-15T03:42:55.905Z,95.59
2022-12-15T03:48:01.808Z,95.72
2022-12-15T03:53:07.854Z,95.81
2022-12-15T03:58:13.832Z,95.84
2022-12-15T04:03:19.749Z,96.05
2022-12-15T04:08:26.856Z,95.78
2022-12-15T04:13:33.059Z,95.77
2022-12-15T04:18:39.483Z,95.78
2022-12-15T04:24:04.232Z,95.90
2022-12-15T04:29:28.552Z,95.98
2022-12-15T04:34:54.256Z,96.08
2022-12-15T04:40:20.071Z,96.20
2022-12-15T04:45:45.357Z,96.19
2022-12-15T04:51:09.890Z,96.19
2022-12-15T04:56:35.814Z,96.24
2022-12-15T05:02:00.498Z,96.15
2022-12-15T05:07:24.945Z,96.07
2022-12-15T05:12:50.121Z,96.15
2022-12-15T05:18:14.995Z,96.15
2022-12-15T05:23:39.662Z,96.09
2022-12-15T05:29:04.334Z,96.15
2022-12-15T05:34:10.068Z,96.24
2022-12-15T05:39:15.765Z,96.32
2022-12-15T05:44:21.609Z,96.34
2022-12-15T05:49:27.321Z,96.47
2022-12-15T05:54:33.309Z,96.35
2022-12-15T05:59:39.032Z,96.44
2022-12-15T06:04:44.937Z,96.43
2022-12-15T06:09:50.880Z,96.55
2022-12-15T06:14:56.796Z,96.58
2022-12-15T06:20:02.948Z,96.79
2022-12-15T06:25:10.075Z,96.83
2022-12-15T06:30:16.790Z,96.84
2022-12-15T06:35:22.452Z,96.71
2022-12-15T06:40:36.271Z,96.86
2022-12-15T06:45:50.054Z,96.94
2022-12-15T06:50:56.085Z,96.89
2022-12-15T06:56:04.321Z,96.63
2022-12-15T07:01:11.043Z,96.35
2022-12-15T07:06:18.948Z,96.24
2022-12-15T07:11:24.837Z,96.03
2022-12-15T07:16:31.227Z,95.83
2022-12-15T07:21:37.317Z,95.73
2022-12-15T07:26:43.180Z,95.47
2022-12-15T07:31:49.371Z,95.48
2022-12-15T07:36:55.652Z,95.37
2022-12-15T07:42:02.001Z,95.45
2022-12-15T07:47:07.871Z,95.29
2022-12-15T07:52:14.195Z,95.13
2022-12-15T07:57:20.144Z,94.77
2022-12-15T08:02:26.173Z,94.74
2022-12-15T08:07:32.157Z,94.72
2022-12-15T08:12:38.106Z,94.57
2022-12-15T08:17:46.686Z,94.20
2022-12-15T08:22:52.901Z,93.94
2022-12-15T08:27:58.761Z,93.57
2022-12-15T08:33:05.022Z,93.01
2022-12-15T08:38:10.768Z,92.52
2022-12-15T08:43:16.455Z,92.45
2022-12-15T08:48:23.876Z,91.73
2022-12-15T08:53:31.652Z,91.03
2022-12-15T08:58:38.609Z,90.45
2022-12-15T09:03:45.058Z,90.27
2022-12-15T09:08:53.450Z,90.08
2022-12-15T09:14:00.483Z,89.74
2022-12-15T09:19:08.192Z,89.84
2022-12-15T09:24:24.748Z,89.60
2022-12-15T09:29:34.100Z,89.54
2022-12-15T09:34:40.208Z,89.74
2022-12-15T09:39:46.154Z,89.42
2022-12-15T09:44:58.461Z,89.43
2022-12-15T09:50:09.504Z,89.54
2022-12-15T09:55:18.755Z,89.85
2022-12-15T10:00:29.804Z,89.98
2022-12-15T10:11:21.662Z,89.31
2022-12-15T10:16:34.938Z,89.22
2022-12-15T10:21:41.394Z,89.00
2022-12-15T10:26:54.131Z,89.12
2022-12-15T10:32:05.094Z,89.37
2022-12-15T10:37:13.544Z,89.26
2022-12-15T10:42:22.041Z,89.15
2022-12-15T10:47:31.464Z,89.41
2022-12-15T10:52:38.873Z,89.45
2022-12-15T10:58:00.344Z,89.68
2022-12-15T11:03:23.219Z,89.83
2022-12-15T11:08:31.356Z,89.74
2022-12-15T11:13:38.054Z,89.57
2022-12-15T11:18:48.940Z,89.51
2022-12-15T11:24:05.771Z,89.21
2022-12-15T11:29:23.524Z,88.60
2022-12-15T11:34:36.828Z,88.79
2022-12-15T11:39:57.752Z,88.49
2022-12-15T11:45:07.935Z,88.31
2022-12-15T11:50:28.183Z,87.79
2022-12-15T11:55:43.010Z,88.04
2022-12-15T12:00:59.103Z,87.52
2022-12-15T12:06:12.018Z,87.30
2022-12-15T12:11:21.717Z,87.63
2022-12-15T12:16:40.306Z,87.99
2022-12-15T12:27:31.837Z,88.32
2022-12-15T12:32:50.724Z,88.23
2022-12-15T12:43:34.946Z,87.96
2022-12-15T12:48:48.502Z,88.14
2022-12-15T12:53:55.643Z,88.30
2022-12-15T12:59:07.879Z,88.54
2022-12-15T13:04:34.428Z,88.64
2022-12-15T13:09:43.213Z,89.06
2022-12-15T13:14:51.925Z,89.23
2022-12-15T13:20:24.856Z,89.42
2022-12-15T13:25:42.862Z,89.93
2022-12-15T13:31:22.450Z,90.19
2022-12-15T13:37:01.804Z,90.46
2022-12-15T13:42:35.026Z,90.51
2022-12-15T13:47:50.379Z,90.36
2022-12-15T13:58:30.243Z,90.61
2022-12-15T14:03:37.320Z,90.60
2022-12-15T14:08:44.000Z,90.79
2022-12-15T14:13:54.204Z,90.98
2022-12-15T14:19:15.157Z,91.09
2022-12-15T14:30:18.285Z,91.54
2022-12-15T14:35:29.535Z,91.64
2022-12-15T14:40:37.861Z,91.67
2022-12-15T14:45:44.160Z,91.77
2022-12-15T14:50:51.271Z,91.52
2022-12-15T14:55:59.263Z,91.12
2022-12-15T15:01:19.039Z,91.08
2022-12-15T15:03:05.967Z,91.24
2022-12-15T15:03:07.202Z,88.10
2022-12-15T15:03:12.135Z,88.12
2022-12-15T15:06:32.258Z,91.34
2022-12-15T15:11:40.746Z,91.50
2022-12-15T15:16:58.590Z,91.59
2022-12-15T15:22:04.800Z,91.32
2022-12-15T15:27:35.041Z,91.27
2022-12-15T15:32:51.644Z,91.62
2022-12-15T15:38:03.400Z,91.57
2022-12-15T15:43:13.200Z,91.95
2022-12-15T15:48:25.109Z,91.96
2022-12-15T15:53:33.277Z,92.14
2022-12-15T15:58:39.408Z,92.25
2022-12-15T16:03:45.569Z,92.27
2022-12-15T16:08:56.238Z,92.20
2022-12-15T16:14:01.570Z,92.24
2022-12-15T16:19:08.766Z,92.40
2022-12-15T16:24:19.467Z,92.13
2022-12-15T16:29:25.274Z,92.00
2022-12-15T16:34:31.297Z,92.15
2022-12-15T16:39:37.426Z,92.39
2022-12-15T16:44:43.396Z,92.50
2022-12-15T16:49:49.385Z,92.45
2022-12-15T16:54:56.579Z,92.50
2022-12-15T17:00:02.715Z,92.84
2022-12-15T17:05:09.842Z,93.17
2022-12-15T17:10:22.404Z,93.51
2022-12-15T17:15:29.381Z,93.71
2022-12-15T17:20:35.334Z,93.97
2022-12-15T17:26:19.675Z,93.70
2022-12-15T17:31:16.570Z,93.72
2022-12-15T17:36:24.501Z,93.88
2022-12-15T17:42:01.443Z,94.04
2022-12-15T17:46:56.723Z,94.09
2022-12-15T17:52:06.610Z,94.10
2022-12-15T17:57:12.952Z,93.95
2022-12-15T18:02:19.112Z,93.91
2022-12-15T18:07:25.824Z,94.02
2022-12-15T18:12:31.834Z,94.19
2022-12-15T18:17:37.619Z,94.08
2022-12-15T18:22:43.909Z,94.01
2022-12-15T18:27:50.002Z,93.92
2022-12-15T18:32:58.496Z,93.96
2022-12-15T18:38:12.104Z,93.78
2022-12-15T18:43:20.556Z,93.70
2022-12-15T18:48:27.932Z,93.72
2022-12-15T18:53:36.769Z,93.50
2022-12-15T18:58:43.052Z,93.24
2022-12-15T19:03:48.985Z,93.12
2022-12-15T19:08:54.916Z,93.00
2022-12-15T19:14:02.462Z,92.95
2022-12-15T19:19:31.183Z,93.05
2022-12-15T19:24:55.568Z,92.80
2022-12-15T19:30:01.644Z,92.41
2022-12-15T19:35:08.574Z,92.30
2022-12-15T19:40:22.303Z,92.37
2022-12-15T19:45:30.173Z,92.32
2022-12-15T19:50:40.815Z,92.44
2022-12-15T19:55:46.831Z,92.50
2022-12-15T20:00:52.982Z,92.48
2022-12-15T20:06:01.007Z,92.32
2022-12-15T20:11:09.281Z,92.23
2022-12-15T20:16:19.367Z,92.22
2022-12-15T20:21:31.491Z,92.23
2022-12-15T20:26:39.140Z,92.33
2022-12-15T20:31:45.261Z,92.49
2022-12-15T20:36:51.676Z,92.65
2022-12-15T20:41:58.225Z,92.35
2022-12-15T20:47:04.220Z,92.21
2022-12-15T20:52:18.548Z,92.14
2022-12-15T20:57:24.349Z,92.12
2022-12-15T21:02:31.084Z,92.02
2022-12-15T21:07:37.062Z,91.30
2022-12-15T21:12:45.887Z,91.46
2022-12-15T21:18:11.245Z,91.64
2022-12-15T21:23:25.709Z,91.64
2022-12-15T21:28:31.930Z,91.85
2022-12-15T21:33:38.140Z,91.87
2022-12-15T21:38:47.329Z,91.70
2022-12-15T21:43:53.440Z,91.47
2022-12-15T21:49:18.334Z,91.45
2022-12-15T21:54:30.727Z,91.47
2022-12-15T21:59:37.667Z,91.49
2022-12-15T22:04:43.519Z,91.65
2022-12-15T22:09:49.422Z,91.78
2022-12-15T22:14:57.886Z,91.67
2022-12-15T22:20:12.808Z,91.82
2022-12-15T22:25:21.281Z,92.12
2022-12-15T22:30:28.322Z,92.06
2022-12-15T22:35:34.268Z,92.02
2022-12-15T22:40:40.175Z,92.09
2022-12-15T22:45:47.875Z,92.18
2022-12-15T22:50:53.930Z,92.24
2022-12-15T22:56:03.469Z,92.23
2022-12-15T23:01:10.266Z,92.26
2022-12-15T23:06:16.177Z,92.10
2022-12-15T23:11:37.813Z,92.33
2022-12-15T23:16:45.551Z,92.45
2022-12-15T23:21:52.036Z,92.39
2022-12-15T23:26:58.276Z,92.34
2022-12-15T23:32:04.611Z,92.29
2022-12-15T23:37:10.493Z,92.41
2022-12-15T23:42:16.375Z,92.51
2022-12-15T23:47:22.234Z,92.56
2022-12-15T23:52:29.475Z,92.54
2022-12-15T23:57:35.688Z,92.51
